Alper Omur

Olheiro-Chefe - Istanbulspor
23 Out 2027
Sábado
Processo

Personalidade

Adaptabilidade (7) Ambição (18) Controvérsia (2) Lealdade (7) Pressão (18) Profissionalismo (7) Espírito Esportivo (3) Temperamento (15)

Perfil

Estilo de Treinamento Democrático
Licença Continental A
Determinação 4
Gestão de Pessoas 4
Motivação 3
Disciplina 4
Satisfação no Trabalho
95%
Fadiga
0%
Função Olheiro-Chefe
Salário 18.6K p/s
Contrato 14.03.2028

Desempenho

Comportamento Bom
Eficácia do Treinamento
28%
Desenvolvimento do Jogador
35%
Prevenção de Lesões
30%
Implementação Tática
20%

Eventos Recentes

Participou de uma reunião de recrutamento agora
Recomendou um alvo de transferência agora
Recomendou um alvo de transferência agora
Recomendou um alvo de transferência agora
Recomendou um alvo de transferência agora
Recomendou um alvo de transferência agora
Recomendou um alvo de transferência agora
Participou de uma reunião de recrutamento 7d atrás

Monitorando agora

169
Jogador Clube Status Habilidade Confiança Observado Última observação Último voto
Azem Yortaç Besiktas Negociando 87 / 97 83% 1 02.08.2027 Aprovar
Ali Yıldız Hatayspor Ativo 88 / 95 83% 1 14.06.2027 Aprovar
Arda Öztürk Trabzonspor Ativo 101 / 107 83% 1 02.06.2027 Aprovar
Caio Vidal FC Copenhagen Negociando 128 / 129 63% 1 01.06.2027 Aprovar
Tony Springett Barnet Ativo 99 / 98 40% 5 30.05.2027 -
Jason Knight Bristol City Ativo 132 / 127 40% 2 30.05.2027 -
Romaine Mundle Sunderland Ativo 132 / 121 40% 3 29.05.2027 -
Koki Saito Queens Park Rangers Ativo 126 / 126 40% 3 29.05.2027 -
Dale Taylor Blackpool Ativo 107 / 103 40% 4 29.05.2027 -
Louie Barry Sheffield Wednesday Ativo 120 / 128 40% 5 27.05.2027 -
Cian Ashford Cardiff City Ativo 118 / 111 40% 3 27.05.2027 -
Isma Ruiz Córdoba Ativo 130 / 135 40% 1 27.05.2027 -
Daniel Kyerewaa Reading Ativo 118 / 105 40% 3 26.05.2027 -
Othmane Maamma Watford Ativo 125 / 134 40% 2 26.05.2027 -
Jacques Ekomié Wrexham Ativo 134 / 128 40% 2 24.05.2027 -
Giorgi Chakvetadze Watford Ativo 129 / 136 40% 1 23.05.2027 -
Tariq Lamptey Queens Park Rangers Ativo 135 / 133 40% 2 21.05.2027 -
Abu Kamara Portsmouth Ativo 122 / 128 40% 3 21.05.2027 -
Rumarn Burrell Queens Park Rangers Ativo 125 / 123 40% 4 20.05.2027 -
Xavier Amaechi Plymouth Argyle Ativo 110 / 111 40% 2 20.05.2027 -
Paris Maghoma Norwich City Ativo 122 / 121 40% 1 20.05.2027 -
Oliver Skipp Leicester City Ativo 128 / 133 40% 2 18.05.2027 -
Aidomo Emakhu Oxford United Ativo 117 / 131 40% 2 17.05.2027 -
Jeon Jin-Woo Sheffield Wednesday Ativo 133 / 130 40% 4 17.05.2027 -
Dylan Levitt Leyton Orient Ativo 115 / 117 40% 1 17.05.2027 -
Tyrese Campbell Sheffield United Ativo 128 / 136 40% 6 15.05.2027 Observar
Lamine Cissé Peterborough United Ativo 119 / 121 40% 3 15.05.2027 -
Arda Güler Real Madrid Ativo 153 / 148 40% 1 15.05.2027 -
Andre Brooks Sheffield United Ativo 124 / 129 40% 4 14.05.2027 -
Jack Rudoni Coventry City Ativo 135 / 143 40% 4 14.05.2027 -
Giorgi Kvernadze Frosinone Ativo 129 / 122 40% 1 14.05.2027 -
Max Bird Birmingham Ativo 130 / 139 40% 8 12.05.2027 -
Juan Bezerra Zamalek Ativo 128 / 128 40% 3 08.05.2027 -
Álex Valle Como Ativo 133 / 146 40% 1 08.05.2027 -
Kwame Poku Queens Park Rangers Ativo 123 / 120 40% 1 08.05.2027 -
Bosun Lawal Stoke City Ativo 122 / 124 40% 4 07.05.2027 -
Isaac Price West Bromwich Albion Ativo 124 / 122 40% 1 07.05.2027 -
Mduduzi Shabalala Kaizer Chiefs Ativo 119 / 107 40% 1 07.05.2027 -
Tyler Goodrham Oxford United Ativo 119 / 126 40% 1 04.05.2027 -
Bobby Clark Derby County Ativo 118 / 134 40% 1 02.05.2027 -
Welington Southampton Ativo 128 / 129 40% 2 01.05.2027 -
Doğucan Haspolat Westerlo Ativo 123 / 134 40% 1 01.05.2027 -
Ramón Terrats Getafe Ativo 138 / 136 40% 1 01.05.2027 -
Brooke Norton-Cuffy Hull City Ativo 133 / 131 40% 4 29.04.2027 -
Tshepang Moremi Orlando Pirates Ativo 122 / 114 40% 3 26.04.2027 -
Julio Enciso Ipswich Town Ativo 150 / 138 40% 5 23.04.2027 -
Fraser Murray Wigan Athletic Ativo 116 / 105 40% 3 23.04.2027 -
Zeidane Inoussa Swansea City Ativo 122 / 133 40% 2 22.04.2027 -
Paddy Lane Reading Ativo 112 / 97 40% 1 21.04.2027 -
Pape Habib Guèye Kasimpasa Ativo 112 / 115 40% 2 20.04.2027 -
Jack Lankester Crewe Alexandra Ativo 98 / 106 40% 1 20.04.2027 -
Finn Azaz Southampton Ativo 126 / 138 40% 5 19.04.2027 -
Ollie Tanner Cardiff City Ativo 122 / 127 40% 1 19.04.2027 -
Jovon Makama Norwich City Ativo 125 / 123 40% 2 15.04.2027 -
Relebohile Mofokeng Orlando Pirates Ativo 120 / 117 40% 4 15.04.2027 -
Edmund Paintsil Liberty Professionals Ativo 104 / 90 40% 1 15.04.2027 -
Jack McGlynn Stoke City Ativo 127 / 121 40% 3 11.04.2027 -
Umeh Emmanuel Fatih Karagumruk Ativo 120 / 126 40% 3 10.04.2027 -
Chem Campbell Stevenage Ativo 113 / 114 40% 1 06.04.2027 -
Alex Robertson Cardiff City Ativo 121 / 118 40% 1 05.04.2027 -
Mohammad Mehdi Mohebi Persepolis Ativo 113 / 106 40% 2 03.04.2027 -
Milson Al Jazira Ativo 130 / 114 40% 1 01.04.2027 -
Kelly Saravanan Salford City Ativo 108 / 116 40% 1 01.04.2027 -
Tom Fellows Southampton Ativo 127 / 143 40% 2 31.03.2027 -
Max Conway Bolton Wanderers Ativo 113 / 117 40% 4 30.03.2027 -
Million Manhoef Stoke City Ativo 122 / 120 40% 2 30.03.2027 -
Ronald Swansea City Ativo 129 / 137 40% 3 27.03.2027 -
Mehdi Hashemnejad Tractor Ativo 116 / 105 40% 2 25.03.2027 -
Loum Tchaouna Coventry City Ativo 136 / 142 40% 2 24.03.2027 -
Max Johnston Derby County Ativo 123 / 136 40% 3 21.03.2027 -
Musab Al-Juwayr Al-Qadisiyah Ativo 135 / 142 40% 2 18.03.2027 -
Mathias Jørgensen Blackburn Rovers Ativo 120 / 118 40% 2 18.03.2027 -
Camilo Durán Bloemfontein Celtic Ativo 115 / 114 40% 1 18.03.2027 -
Dávid Strelec Middlesbrough Ativo 140 / 138 40% 1 14.03.2027 -
Orkun Kökçü Bournemouth Ativo 149 / 148 40% 1 14.03.2027 -
Jay Stansfield Birmingham Ativo 121 / 127 40% 1 12.03.2027 -
Wandile Duba Maritzburg United Ativo 112 / 113 40% 4 11.03.2027 -
Serginho Al Wasl Ativo 126 / 121 40% 3 09.03.2027 -
Khalid Al-Ghannam Al-Ettifaq Ativo 122 / 109 40% 1 07.03.2027 -
Milan van Ewijk Coventry City Ativo 127 / 140 40% 3 05.03.2027 -
Marouan Azarkan Al Nasr Ativo 121 / 110 40% 1 02.03.2027 -
Matheus Gonçalves Al-Ahli Ativo 120 / 137 40% 1 25.02.2027 -
Gerónimo Rivera Al Wahda Ativo 131 / 132 40% 1 23.02.2027 -
Simon Ramabu Polokwane City Ativo 114 / 106 40% 1 20.02.2027 -
Ethan Galbraith Swansea City Ativo 138 / 131 40% 7 19.02.2027 -
Harry Clarke Preston Ativo 122 / 130 40% 2 18.02.2027 -
Petr Juliš Slovan Liberec Ativo 111 / 105 40% 1 18.02.2027 -
Đorđe Jovanović Radnik Surdulica Ativo 113 / 107 40% 1 17.02.2027 -
Alfie Doughty Millwall Ativo 133 / 130 40% 1 14.02.2027 -
Tristan Crama Millwall Ativo 118 / 122 40% 1 14.02.2027 -
Kasey McAteer Ipswich Town Ativo 122 / 121 40% 1 13.02.2027 -
Tommy Conway Middlesbrough Ativo 128 / 116 40% 1 12.02.2027 -
Mihailo Ivanović Millwall Ativo 121 / 121 40% 1 09.02.2027 -
İbrahim Kaya Alanyaspor Ativo 122 / 120 40% 1 04.02.2027 -
David Ankeye Zeleznicar Pancevo Ativo 111 / 106 40% 1 04.02.2027 -
Aidan Morris Middlesbrough Ativo 136 / 128 40% 1 12.01.2027 -
Ahmed Traoré Fatih Karagumruk Ativo 81 / 86 79% 1 11.01.2027 Aprovar
Thulani Billiat Utrecht Negociando 136 / 137 73% 1 01.01.2027 Aprovar
Amar Memić Juventude Negociando 127 / 128 62% 1 01.01.2027 Aprovar
Jeffrey Asamoah BA All Stars Ativo 121 / 128 40% 1 30.12.2026 -
Mitchel Bakker Rostov Ativo 126 / 122 40% 1 30.12.2026 -
Guillem Molina Huesca Ativo 107 / 106 40% 1 30.12.2026 -
Billy Gilmour Napoli Ativo 154 / 149 40% 1 28.12.2026 -
Adam Randell Bristol City Ativo 121 / 119 40% 1 28.12.2026 -
Mamadou Coulibaly Al Jazira Ativo 119 / 135 40% 2 24.12.2026 -
Njegoš Petrović Vojvodina Ativo 124 / 121 40% 1 24.12.2026 -
Ousmane Diakité West Bromwich Albion Ativo 126 / 127 40% 1 24.12.2026 -
Shea Charles Southampton Ativo 131 / 140 40% 1 22.12.2026 -
Leighton Clarkson Blackpool Ativo 116 / 106 40% 3 19.12.2026 -
Maicon Levski Ativo 126 / 129 40% 1 19.12.2026 -
Luan Patrick Estrela da Amadora Ativo 117 / 128 40% 1 19.12.2026 -
Victor Torp Coventry City Ativo 121 / 123 40% 1 16.12.2026 -
Jean-Manuel Mbom Viborg Ativo 123 / 126 40% 1 16.12.2026 -
Jayson Molumby West Bromwich Albion Ativo 123 / 122 40% 1 15.12.2026 -
Matías Palacios Al Ain Ativo 124 / 139 40% 1 15.12.2026 -
Japhet Tanganga Sheffield United Ativo 127 / 141 40% 1 14.12.2026 -
Justin Devenny Stoke City Ativo 116 / 119 40% 1 14.12.2026 -
Festy Ebosele Basaksehir Ativo 133 / 127 40% 2 13.12.2026 Mais informações
Arsen Adamov Akhmat Grozny Ativo 120 / 114 40% 1 13.12.2026 -
Kayne Ramsay Charlton Athletic Ativo 119 / 119 40% 2 12.12.2026 -
Terry Devlin Portsmouth Ativo 118 / 124 40% 1 12.12.2026 -
Archie Collins Peterborough United Ativo 108 / 112 40% 1 12.12.2026 -
Florentino Luís Ipswich Town Ativo 145 / 129 40% 3 11.12.2026 -
Brian De Keersmaecker Oxford United Ativo 116 / 128 40% 1 11.12.2026 -
Ciro De Angelis Siah Jamegan Ativo 126 / 127 40% 1 10.12.2026 -
Adrián Bernabé Parma Ativo 139 / 144 40% 1 10.12.2026 -
Toby Collyer West Bromwich Albion Ativo 134 / 127 40% 1 10.12.2026 -
Drissa Camara Gaziantep Ativo 121 / 123 40% 2 09.12.2026 -
Kyle Jurgens Maritzburg United Ativo 107 / 98 40% 1 09.12.2026 -
Yusuf Özdemir Alanyaspor Ativo 118 / 124 40% 1 07.12.2026 -
Furkan Demir Rapid Wien Ativo 125 / 116 40% 1 06.12.2026 -
Mirko Topić Norwich City Ativo 118 / 131 40% 1 06.12.2026 -
Diogo Dalot Manchester United Ativo 145 / 138 40% 1 04.12.2026 -
Rahim Ibrahim Slovan Bratislava Ativo 131 / 123 40% 1 03.12.2026 -
Álvaro Carreras Real Madrid Ativo 157 / 160 40% 1 03.12.2026 -
Vasco Sousa Porto Ativo 129 / 113 40% 1 02.12.2026 -
Anel Ahmedhodžić Burnley Ativo 130 / 136 40% 1 02.12.2026 -
Rico Lewis Manchester City Ativo 143 / 140 40% 1 02.12.2026 -
Neco Williams Nottingham Forest Ativo 140 / 145 40% 1 01.12.2026 -
Caolan Boyd-Munce Wycombe Wanderers Ativo 112 / 108 40% 1 01.12.2026 -
Thalente Mbatha Orlando Pirates Ativo 118 / 105 40% 1 30.11.2026 -
Andre Dozzell Bristol Rovers Ativo 121 / 119 40% 1 30.11.2026 -
Lewis Bate Stockport County Ativo 128 / 109 40% 1 29.11.2026 -
Luke McNally Bristol City Ativo 134 / 118 40% 1 29.11.2026 -
Pedro Porro Tottenham Ativo 137 / 145 40% 2 23.11.2026 -
Godfried Frimpong Kasimpasa Ativo 111 / 118 40% 1 22.11.2026 -
Cheick Oumar Souaré Viktoria Plzen Ativo 130 / 119 40% 1 20.11.2026 -
Ilir Krasniqi Polissia Ativo 116 / 118 40% 1 20.11.2026 -
Conrad Wallem Aalborg Ativo 136 / 128 40% 2 19.11.2026 -
Lindon Emërllahu Polissia Ativo 122 / 120 40% 1 19.11.2026 -
Callum Doyle Wrexham Ativo 138 / 135 40% 2 15.11.2026 -
Kerim Çalhanoğlu Gaziantep Ativo 109 / 112 40% 1 14.11.2026 -
Christoph Klarer Birmingham Ativo 121 / 120 40% 1 14.11.2026 -
Tim Jabol-Folcarelli Galatasaray Ativo 129 / 133 40% 2 13.11.2026 -
Tiago Dantas HNK Rijeka Ativo 119 / 124 40% 1 13.11.2026 -
Dara O'Shea Ipswich Town Ativo 132 / 143 40% 1 11.11.2026 -
Ethan Pye Stockport County Ativo 118 / 113 40% 1 11.11.2026 -
Kamogelo Sebelebele Orlando Pirates Ativo 110 / 118 40% 1 10.11.2026 -
Archie Brown Fenerbahce Ativo 130 / 133 40% 2 09.11.2026 -
Carlos Baleba Manchester United Ativo 142 / 155 40% 1 09.11.2026 -
Carlos Augusto Inter Ativo 145 / 158 40% 1 09.11.2026 -
Lucas Pires Burnley Ativo 122 / 118 40% 1 06.11.2026 -
Carlos Mora Universitatea Craiova Ativo 118 / 120 40% 1 04.11.2026 -
Bledian Krasniqi Zurich Ativo 121 / 117 40% 1 02.11.2026 -
Mert Müldür Fenerbahce Ativo 129 / 130 40% 1 02.11.2026 -
Funsho Bamgboye Hatayspor Ativo 109 / 102 40% 1 10.08.2026 -
Prince Adu Kwabena Viktoria Plzen Ativo 115 / 119 40% 1 10.08.2026 -
Sam Gallagher Stoke City Ativo 100 / 96 40% 1 02.08.2026 -
Elías Ayala Madryn Ativo 100 / 98 40% 1 02.08.2026 -